createdAt,value
2023-04-05T00:03:23.266Z,7.10
2023-04-05T00:07:48.190Z,6.70
2023-04-05T00:12:12.132Z,7.60
2023-04-05T00:16:37.416Z,10.40
2023-04-05T00:21:01.701Z,27.73
2023-04-05T00:25:23.011Z,31.60
2023-04-05T00:29:47.108Z,42.17
2023-04-05T00:34:12.582Z,45.25
2023-04-05T00:38:36.439Z,34.80
2023-04-05T00:43:00.635Z,35.42
2023-04-05T00:47:25.385Z,30.05
2023-04-05T00:51:52.216Z,29.83
2023-04-05T00:56:17.161Z,32.72
2023-04-05T01:00:41.997Z,26.90
2023-04-05T01:05:15.577Z,32.88
2023-04-05T01:09:49.265Z,40.73
2023-04-05T01:14:13.473Z,37.17
2023-04-05T01:18:38.044Z,41.72
2023-04-05T01:23:27.661Z,44.37
2023-04-05T01:28:11.534Z,21.92
2023-04-05T01:32:48.087Z,36.95
2023-04-05T01:37:15.539Z,20.97
2023-04-05T01:41:33.856Z,25.02
2023-04-05T01:45:57.824Z,38.15
2023-04-05T01:50:23.746Z,39.25
2023-04-05T01:54:48.564Z,37.90
2023-04-05T01:59:12.418Z,39.55
2023-04-05T02:03:36.601Z,46.80
2023-04-05T02:08:01.873Z,44.50
2023-04-05T02:12:25.768Z,54.78
2023-04-05T02:16:49.664Z,59.05
2023-04-05T02:21:17.279Z,51.40
2023-04-05T02:25:42.551Z,65.25
2023-04-05T02:30:02.851Z,56.83
2023-04-05T02:34:27.344Z,55.53
2023-04-05T02:38:51.206Z,44.27
2023-04-05T02:43:16.895Z,45.22
2023-04-05T02:47:40.990Z,56.17
2023-04-05T02:52:05.007Z,57.40
2023-04-05T02:56:29.275Z,58.95
2023-04-05T03:00:56.557Z,61.40
2023-04-05T03:05:28.880Z,65.00
2023-04-05T03:09:54.223Z,58.70
2023-04-05T03:14:18.981Z,63.13
2023-04-05T03:18:46.094Z,65.70
2023-04-05T03:23:10.252Z,51.80
2023-04-05T03:27:34.260Z,56.17
2023-04-05T03:32:11.861Z,60.85
2023-04-05T03:36:45.807Z,58.27
2023-04-05T03:41:29.898Z,58.38
2023-04-05T03:45:54.371Z,56.95
2023-04-05T03:50:18.517Z,74.73
2023-04-05T03:54:44.040Z,74.50
2023-04-05T03:59:09.657Z,72.07
2023-04-05T04:03:33.824Z,66.80
2023-04-05T04:07:58.078Z,67.97
2023-04-05T04:12:24.472Z,65.20
2023-04-05T04:16:54.941Z,62.85
2023-04-05T04:21:27.482Z,52.80
2023-04-05T04:25:55.845Z,51.03
2023-04-05T04:30:48.434Z,52.55
2023-04-05T04:35:31.823Z,53.63
2023-04-05T04:40:22.950Z,62.55
2023-04-05T04:45:22.149Z,69.28
2023-04-05T04:49:59.550Z,62.97
2023-04-05T04:54:25.254Z,65.53
2023-04-05T04:58:49.178Z,68.35
2023-04-05T05:03:13.458Z,63.92
2023-04-05T05:07:40.300Z,76.50
2023-04-05T05:12:04.259Z,74.32
2023-04-05T05:16:28.399Z,78.85
2023-04-05T05:20:53.173Z,102.87
2023-04-05T05:25:18.776Z,107.38
2023-04-05T05:29:42.847Z,118.20
2023-04-05T05:34:07.511Z,121.93
2023-04-05T05:38:32.851Z,100.63
2023-04-05T05:42:57.999Z,64.88
2023-04-05T05:47:21.913Z,64.78
2023-04-05T05:51:46.514Z,44.73
2023-04-05T05:56:10.554Z,39.88
2023-04-05T06:00:39.153Z,5.18
2023-04-05T06:05:09.761Z,4.20
2023-04-05T06:09:35.500Z,4.07
2023-04-05T06:14:01.018Z,4.20
2023-04-05T06:18:26.350Z,3.95
2023-04-05T06:22:50.694Z,3.93
2023-04-05T06:27:15.710Z,4.28
2023-04-05T06:31:41.792Z,3.90
2023-04-05T06:36:07.822Z,4.37
2023-04-05T06:40:31.864Z,4.43
2023-04-05T06:44:55.835Z,5.25
2023-04-05T06:49:20.062Z,4.50
2023-04-05T06:53:45.582Z,4.18
2023-04-05T06:58:09.725Z,4.50
2023-04-05T07:02:35.675Z,4.18
2023-04-05T07:07:03.160Z,4.20
2023-04-05T07:11:28.403Z,4.15
2023-04-05T07:15:52.721Z,4.57
2023-04-05T07:20:17.023Z,4.53
2023-04-05T07:24:41.112Z,4.05
2023-04-05T07:29:06.578Z,4.57
2023-04-05T07:33:30.959Z,4.20
2023-04-05T07:37:54.879Z,4.13
2023-04-05T07:42:21.462Z,3.90
2023-04-05T07:46:49.095Z,4.20
2023-04-05T07:51:13.243Z,4.70
2023-04-05T07:55:39.777Z,3.97
2023-04-05T08:00:05.857Z,4.55
2023-04-05T08:04:38.140Z,3.63
2023-04-05T08:09:03.947Z,3.50
2023-04-05T08:13:30.960Z,3.40
2023-04-05T08:17:58.476Z,3.60
2023-04-05T08:22:23.656Z,3.00
2023-04-05T08:26:47.491Z,3.10
2023-04-05T08:31:13.717Z,3.42
2023-04-05T08:35:38.538Z,2.67
2023-04-05T08:40:04.535Z,2.72
2023-04-05T08:44:31.919Z,3.10
2023-04-05T08:48:56.367Z,3.27
2023-04-05T08:53:20.282Z,2.95
2023-04-05T08:57:51.270Z,3.10
2023-04-05T09:02:19.151Z,2.90
2023-04-05T09:06:43.251Z,3.63
2023-04-05T09:11:07.509Z,3.22
2023-04-05T09:15:36.265Z,2.78
2023-04-05T09:20:00.183Z,2.83
2023-04-05T09:24:33.197Z,3.17
2023-04-05T09:28:56.985Z,2.92
2023-04-05T09:33:22.624Z,2.90
2023-04-05T09:37:53.388Z,3.40
2023-04-05T09:42:19.298Z,2.80
2023-04-05T09:46:46.297Z,3.17
2023-04-05T09:51:12.923Z,3.10
2023-04-05T09:55:37.308Z,2.97
2023-04-05T10:00:01.442Z,2.80
2023-04-05T10:04:27.188Z,2.90
2023-04-05T10:08:53.486Z,2.63
2023-04-05T10:13:19.370Z,2.80
2023-04-05T10:17:49.780Z,3.07
2023-04-05T10:22:18.967Z,3.25
2023-04-05T10:26:52.874Z,2.80
2023-04-05T10:31:36.896Z,2.83
2023-04-05T10:36:19.456Z,2.90
2023-04-05T10:40:47.627Z,3.20
2023-04-05T10:45:15.719Z,3.47
2023-04-05T10:49:43.851Z,2.80
2023-04-05T10:54:11.093Z,2.67
2023-04-05T10:58:36.854Z,2.60
2023-04-05T11:03:02.595Z,83.33
2023-04-05T11:07:26.584Z,76.75
2023-04-05T11:11:52.158Z,86.78
2023-04-05T11:16:16.283Z,59.10
2023-04-05T11:20:51.655Z,12.65
2023-04-05T11:25:24.071Z,18.95
2023-04-05T11:29:49.968Z,35.53
2023-04-05T11:34:13.942Z,41.63
2023-04-05T11:38:40.945Z,39.63
2023-04-05T11:43:07.673Z,36.13
2023-04-05T11:47:31.652Z,24.20
2023-04-05T11:51:56.096Z,25.80
2023-04-05T11:56:21.494Z,58.25
2023-04-05T12:00:46.931Z,96.80
2023-04-05T12:05:11.337Z,77.88
2023-04-05T12:09:35.319Z,89.43
2023-04-05T12:14:02.436Z,60.45
2023-04-05T12:18:27.415Z,91.20
2023-04-05T12:22:53.210Z,68.25
2023-04-05T12:27:17.051Z,49.30
2023-04-05T12:31:43.419Z,83.90
2023-04-05T12:36:08.891Z,81.15
2023-04-05T12:40:33.933Z,69.32
2023-04-05T12:45:05.671Z,42.53
2023-04-05T12:49:31.262Z,49.20
2023-04-05T12:53:58.331Z,59.20
2023-04-05T12:58:23.804Z,44.67
2023-04-05T13:02:51.254Z,26.80
2023-04-05T13:07:16.731Z,54.72
2023-04-05T13:11:40.651Z,51.67
2023-04-05T13:16:05.067Z,53.33
2023-04-05T13:20:29.173Z,56.67
2023-04-05T13:24:55.017Z,91.13
2023-04-05T13:29:19.101Z,117.40
2023-04-05T13:33:43.074Z,39.58
2023-04-05T13:38:06.914Z,127.60
2023-04-05T13:42:32.274Z,147.38
2023-04-05T13:46:56.080Z,97.93
2023-04-05T13:51:20.512Z,102.20
2023-04-05T13:55:44.407Z,124.95
2023-04-05T14:32:19.855Z,79.75
2023-04-05T14:37:14.540Z,92.05
2023-04-05T14:41:52.574Z,92.27
2023-04-05T14:46:11.533Z,148.27
2023-04-05T14:50:33.110Z,151.18
2023-04-05T14:54:53.502Z,149.65
2023-04-05T14:59:10.846Z,141.37
2023-04-05T15:03:31.065Z,164.68
2023-04-05T15:07:51.928Z,226.40
2023-04-05T15:12:11.107Z,127.20
2023-04-05T15:16:30.376Z,143.18
2023-04-05T15:20:50.975Z,105.65
2023-04-05T15:25:11.248Z,130.03
2023-04-05T15:29:29.757Z,156.30
2023-04-05T15:33:47.561Z,139.40
2023-04-05T15:38:05.733Z,138.90
2023-04-05T15:42:25.011Z,89.23
2023-04-05T15:46:45.011Z,98.10
2023-04-05T15:51:03.106Z,155.75
2023-04-05T15:55:21.080Z,122.30
2023-04-05T15:59:40.829Z,139.45
2023-04-05T16:04:00.486Z,140.63
2023-04-05T16:08:18.193Z,143.53
2023-04-05T16:12:36.542Z,151.98
2023-04-05T16:16:55.729Z,142.27
2023-04-05T16:21:16.581Z,131.23
2023-04-05T16:25:36.759Z,143.90
2023-04-05T16:29:54.704Z,156.88
2023-04-05T16:34:16.145Z,176.75
2023-04-05T16:38:34.042Z,195.93
2023-04-05T16:42:55.503Z,196.52
2023-04-05T16:47:13.275Z,194.32
2023-04-05T16:51:33.226Z,180.27
2023-04-05T16:55:52.162Z,177.23
2023-04-05T17:00:11.557Z,184.45
2023-04-05T17:04:32.568Z,183.48
2023-04-05T17:08:54.018Z,181.23
2023-04-05T17:13:14.804Z,182.75
2023-04-05T17:17:34.730Z,182.32
2023-04-05T17:21:58.889Z,192.20
2023-04-05T17:26:24.740Z,200.38
2023-04-05T17:30:49.633Z,11.18
2023-04-05T17:35:13.888Z,4.20
2023-04-05T17:39:37.992Z,25.15
2023-04-05T17:44:04.034Z,171.18
2023-04-05T17:48:29.688Z,202.32
2023-04-05T17:52:55.620Z,240.20
2023-04-05T17:57:21.709Z,300.48
2023-04-05T18:01:53.741Z,375.75
2023-04-05T18:06:20.492Z,386.10
2023-04-05T18:10:46.650Z,402.95
2023-04-05T18:15:14.777Z,399.60
2023-04-05T18:19:45.958Z,382.37
2023-04-05T18:24:12.982Z,412.48
2023-04-05T18:28:37.079Z,431.90
2023-04-05T18:33:01.311Z,443.13
2023-04-05T18:37:28.449Z,520.60
2023-04-05T18:41:53.875Z,641.45
2023-04-05T18:46:18.782Z,750.60
2023-04-05T18:50:43.247Z,796.07
2023-04-05T18:55:10.165Z,788.60
2023-04-05T18:59:34.712Z,780.35
2023-04-05T19:04:00.574Z,35.70
2023-04-05T19:08:26.784Z,12.73
2023-04-05T19:12:52.570Z,6.50
2023-04-05T19:17:16.972Z,17.05
2023-04-05T19:21:41.267Z,9.13
2023-04-05T19:26:05.595Z,5.18
2023-04-05T19:30:31.100Z,12.18
2023-04-05T19:34:55.480Z,5.00
2023-04-05T19:39:22.155Z,14.32
2023-04-05T19:43:50.331Z,8.75
2023-04-05T19:48:37.855Z,25.03
2023-04-05T19:53:02.083Z,74.05
2023-04-05T19:57:26.496Z,6.60
2023-04-05T20:01:50.730Z,7.93
2023-04-05T20:06:17.095Z,5.57
2023-04-05T20:10:45.635Z,5.50
2023-04-05T20:15:16.042Z,90.97
2023-04-05T20:19:42.033Z,142.20
2023-04-05T20:24:11.100Z,43.10
2023-04-05T20:28:43.415Z,75.18
2023-04-05T20:33:08.358Z,74.90
2023-04-05T20:37:35.709Z,85.13
2023-04-05T20:42:01.508Z,45.40
2023-04-05T20:46:26.347Z,31.48
2023-04-05T20:50:52.175Z,31.53
2023-04-05T20:55:16.420Z,16.13
2023-04-05T20:59:42.221Z,31.77
2023-04-05T21:04:06.656Z,5.00
2023-04-05T21:08:32.848Z,24.20
2023-04-05T21:12:56.948Z,21.67
2023-04-05T21:17:23.095Z,50.40
2023-04-05T21:21:47.699Z,3.05
2023-04-05T21:26:14.654Z,3.13
2023-04-05T21:30:39.245Z,4.43
2023-04-05T21:35:04.852Z,4.87
2023-04-05T21:39:28.767Z,3.38
2023-04-05T21:43:52.750Z,3.40
2023-04-05T21:48:16.716Z,3.43
2023-04-05T21:52:42.242Z,4.20
2023-04-05T21:57:06.743Z,4.35
2023-04-05T22:01:30.889Z,3.53
2023-04-05T22:05:54.902Z,5.43
2023-04-05T22:10:20.743Z,3.55
2023-04-05T22:14:45.086Z,4.05
2023-04-05T22:19:11.545Z,3.90
2023-04-05T22:23:35.873Z,6.03
2023-04-05T22:28:01.375Z,5.40
2023-04-05T22:32:25.668Z,5.23
2023-04-05T22:36:49.651Z,5.03
2023-04-05T22:41:13.918Z,5.18
2023-04-05T22:45:39.546Z,4.20
2023-04-05T22:50:03.856Z,3.15
2023-04-05T22:54:28.064Z,2.40
2023-04-05T22:58:52.309Z,3.67
2023-04-05T23:03:18.524Z,4.37
2023-04-05T23:07:42.888Z,5.40
2023-04-05T23:12:08.042Z,3.92
2023-04-05T23:16:32.439Z,3.83
2023-04-05T23:20:57.980Z,4.97
2023-04-05T23:25:22.514Z,2.22
2023-04-05T23:29:46.870Z,5.07
2023-04-05T23:34:11.088Z,4.43
2023-04-05T23:38:37.192Z,4.45
2023-04-05T23:43:01.477Z,5.20
2023-04-05T23:47:25.806Z,2.10
2023-04-05T23:51:50.878Z,3.75
2023-04-05T23:56:16.909Z,4.53
